createdAt,value
2022-11-17T00:01:21.339Z,99976.25
2022-11-17T00:03:52.463Z,99970.03
2022-11-17T00:06:22.522Z,99963.41
2022-11-17T00:08:53.595Z,99965.66
2022-11-17T00:11:23.671Z,99969.72
2022-11-17T00:14:12.494Z,99958.59
2022-11-17T00:16:42.555Z,99970.56
2022-11-17T00:19:31.508Z,99964.16
2022-11-17T00:22:04.802Z,99966.31
2022-11-17T00:24:37.775Z,99967.63
2022-11-17T00:27:08.254Z,99977.78
2022-11-17T00:29:39.293Z,99960.44
2022-11-17T00:32:38.234Z,99962.81
2022-11-17T00:35:08.111Z,99957.53
2022-11-17T00:38:03.547Z,99950.88
2022-11-17T00:40:31.435Z,99957.31
2022-11-17T00:42:59.524Z,99946.78
2022-11-17T00:45:27.824Z,99950.59
2022-11-17T00:47:56.265Z,99959.03
2022-11-17T00:50:24.952Z,99951.41
2022-11-17T00:52:53.201Z,99953.22
2022-11-17T00:55:21.672Z,99948.78
2022-11-17T00:57:50.171Z,99948.56
2022-11-17T01:00:18.538Z,99952.03
2022-11-17T01:02:46.910Z,99948.34
2022-11-17T01:05:15.456Z,99945.88
2022-11-17T01:07:43.881Z,99951.69
2022-11-17T01:10:12.463Z,99944.09
2022-11-17T01:12:40.611Z,99957.66
2022-11-17T01:15:10.085Z,99943.06
2022-11-17T01:17:37.521Z,99950.13
2022-11-17T01:20:07.382Z,99944.59
2022-11-17T01:22:37.312Z,99944.78
2022-11-17T01:25:07.673Z,99944.94
2022-11-17T01:27:35.939Z,99923.28
2022-11-17T01:30:05.264Z,99930.44
2022-11-17T01:32:35.300Z,99927.41
2022-11-17T01:35:04.125Z,99931.84
2022-11-17T01:37:32.279Z,99937.56
2022-11-17T01:40:00.607Z,99935.41
2022-11-17T01:42:29.113Z,99926.09
2022-11-17T01:45:25.955Z,99925.78
2022-11-17T01:48:04.789Z,99918.06
2022-11-17T01:50:49.421Z,99913.63
2022-11-17T01:53:23.381Z,99914.16
2022-11-17T01:56:09.558Z,99912.38
2022-11-17T01:58:53.950Z,99913.78
2022-11-17T02:01:24.767Z,99918.06
2022-11-17T02:03:55.435Z,99922.00
2022-11-17T02:06:36.500Z,99924.69
2022-11-17T02:09:07.868Z,99929.41
2022-11-17T02:11:38.104Z,99927.13
2022-11-17T02:14:09.182Z,99929.94
2022-11-17T02:16:39.305Z,99932.66
2022-11-17T02:19:16.643Z,99929.34
2022-11-17T02:22:30.905Z,99922.00
2022-11-17T02:26:01.508Z,99923.03
2022-11-17T02:29:00.215Z,99915.13
2022-11-17T02:32:05.729Z,99910.44
2022-11-17T02:35:08.146Z,99920.75
2022-11-17T02:38:35.430Z,99904.00
2022-11-17T02:41:43.490Z,99902.31
2022-11-17T02:45:01.120Z,99903.13
2022-11-17T02:47:43.274Z,99889.69
2022-11-17T02:50:17.631Z,99897.75
2022-11-17T02:52:50.918Z,99888.66
2022-11-17T02:55:21.187Z,99903.47
2022-11-17T02:57:51.392Z,99893.19
2022-11-17T03:00:22.041Z,99883.84
2022-11-17T03:03:40.185Z,99883.47
2022-11-17T03:06:45.219Z,99876.88
2022-11-17T03:09:56.967Z,99870.88
2022-11-17T03:12:46.288Z,99874.94
2022-11-17T03:16:14.649Z,99875.72
2022-11-17T03:19:16.035Z,99874.50
2022-11-17T03:22:32.730Z,99866.81
2022-11-17T03:25:17.659Z,99867.63
2022-11-17T03:27:58.515Z,99882.66
2022-11-17T03:30:37.316Z,99881.75
2022-11-17T03:33:25.753Z,99882.28
2022-11-17T03:36:13.763Z,99874.00
2022-11-17T03:39:03.056Z,99881.25
2022-11-17T03:41:45.142Z,99878.56
2022-11-17T03:44:24.043Z,99872.84
2022-11-17T03:47:02.198Z,99878.50
2022-11-17T03:50:12.969Z,99872.28
2022-11-17T03:52:46.356Z,99871.75
2022-11-17T03:55:17.491Z,99874.53
2022-11-17T03:58:18.543Z,99867.84
2022-11-17T04:00:56.604Z,99866.28
2022-11-17T04:03:34.531Z,99864.06
2022-11-17T04:06:05.304Z,99864.06
2022-11-17T04:08:35.415Z,99870.22
2022-11-17T04:11:38.282Z,99866.97
2022-11-17T04:14:24.507Z,99870.06
2022-11-17T04:16:54.616Z,99855.91
2022-11-17T04:19:24.725Z,99867.91
2022-11-17T04:21:55.300Z,99867.84
2022-11-17T04:24:25.396Z,99857.19
2022-11-17T04:27:14.289Z,99861.53
2022-11-17T04:29:44.348Z,99854.97
2022-11-17T04:32:14.508Z,99853.84
2022-11-17T04:34:44.590Z,99842.53
2022-11-17T04:37:17.653Z,99851.25
2022-11-17T04:39:47.791Z,99842.00
2022-11-17T04:42:18.148Z,99846.06
2022-11-17T04:44:48.232Z,99837.06
2022-11-17T04:47:16.667Z,99840.97
2022-11-17T04:49:45.050Z,99839.59
2022-11-17T04:52:13.492Z,99832.75
2022-11-17T04:54:42.098Z,99837.78
2022-11-17T04:57:10.409Z,99834.88
2022-11-17T04:59:38.885Z,99829.41
2022-11-17T05:02:08.202Z,99827.31
2022-11-17T05:04:56.645Z,99826.66
2022-11-17T05:07:24.474Z,99833.25
2022-11-17T05:09:52.464Z,99832.66
2022-11-17T05:12:42.680Z,99830.69
2022-11-17T05:15:32.737Z,99825.78
2022-11-17T05:18:02.813Z,99821.09
2022-11-17T05:20:33.330Z,99820.22
2022-11-17T05:23:22.249Z,99821.84
2022-11-17T05:25:54.212Z,99815.25
2022-11-17T05:28:24.262Z,99814.22
2022-11-17T05:30:54.316Z,99809.53
2022-11-17T05:33:24.403Z,99808.81
2022-11-17T05:35:54.477Z,99810.22
2022-11-17T05:38:24.607Z,99814.81
2022-11-17T05:40:54.760Z,99805.25
2022-11-17T05:43:24.850Z,99804.16
2022-11-17T05:45:54.926Z,99800.00
2022-11-17T05:48:25.371Z,99801.84
2022-11-17T05:50:56.923Z,99799.47
2022-11-17T05:53:29.389Z,99798.34
2022-11-17T05:56:35.514Z,99799.63
2022-11-17T05:59:24.803Z,99801.59
2022-11-17T06:02:34.454Z,99798.97
2022-11-17T06:05:06.075Z,99799.38
2022-11-17T06:07:38.603Z,99803.63
2022-11-17T06:10:09.698Z,99804.97
2022-11-17T06:12:39.745Z,99796.34
2022-11-17T06:15:10.523Z,99788.72
2022-11-17T06:18:13.610Z,99778.06
2022-11-17T06:20:50.756Z,99775.84
2022-11-17T06:23:28.915Z,99775.84
2022-11-17T06:26:03.434Z,99780.31
2022-11-17T06:28:39.155Z,99779.16
2022-11-17T06:31:09.826Z,99780.16
2022-11-17T06:33:39.998Z,99783.00
2022-11-17T06:36:09.865Z,99778.31
2022-11-17T06:38:39.096Z,99775.44
2022-11-17T06:41:11.719Z,99769.06
2022-11-17T06:43:45.199Z,99765.50
2022-11-17T06:46:15.243Z,99762.78
2022-11-17T06:48:43.577Z,99758.63
2022-11-17T06:51:12.156Z,99748.97
2022-11-17T06:53:40.375Z,99752.56
2022-11-17T06:56:08.918Z,99744.91
2022-11-17T06:58:41.543Z,99751.53
2022-11-17T07:01:15.507Z,99742.09
2022-11-17T07:03:43.488Z,99742.41
2022-11-17T07:06:13.468Z,99743.25
2022-11-17T07:08:43.072Z,99747.19
2022-11-17T07:11:16.841Z,99745.41
2022-11-17T07:13:46.261Z,99750.09
2022-11-17T07:16:23.497Z,99766.16
2022-11-17T07:18:53.634Z,99754.56
2022-11-17T07:21:22.935Z,99753.72
2022-11-17T07:23:51.980Z,99761.72
2022-11-17T07:26:21.993Z,99762.34
2022-11-17T07:28:51.753Z,99754.69
2022-11-17T07:31:22.398Z,99758.28
2022-11-17T07:33:54.497Z,99754.28
2022-11-17T07:36:23.483Z,99757.53
2022-11-17T07:38:53.028Z,99767.44
2022-11-17T07:41:22.802Z,99761.72
2022-11-17T07:43:52.573Z,99766.41
2022-11-17T07:46:22.328Z,99771.38
2022-11-17T07:48:55.064Z,99766.41
2022-11-17T07:51:22.196Z,99770.16
2022-11-17T07:53:50.612Z,99775.16
2022-11-17T07:56:19.066Z,99773.00
2022-11-17T07:58:47.487Z,99772.91
2022-11-17T08:01:15.960Z,99762.22
2022-11-17T08:03:46.380Z,99768.22
2022-11-17T08:06:14.672Z,99765.59
2022-11-17T08:08:45.911Z,99753.41
2022-11-17T08:11:14.588Z,99755.31
2022-11-17T08:13:42.955Z,99753.31
2022-11-17T08:16:12.790Z,99750.16
2022-11-17T08:18:45.949Z,99746.78
2022-11-17T08:21:18.964Z,99738.38
2022-11-17T08:23:52.446Z,99741.59
2022-11-17T08:26:25.468Z,99730.94
2022-11-17T08:28:58.923Z,99726.81
2022-11-17T08:31:29.219Z,99727.69
2022-11-17T08:33:59.389Z,99735.94
2022-11-17T08:36:29.496Z,99735.44
2022-11-17T08:38:59.611Z,99736.88
2022-11-17T08:41:29.870Z,99730.88
2022-11-17T08:44:02.364Z,99723.84
2022-11-17T08:46:32.502Z,99732.69
2022-11-17T08:49:03.054Z,99729.63
2022-11-17T08:51:33.257Z,99742.25
2022-11-17T08:54:03.498Z,99745.81
2022-11-17T08:56:33.618Z,99745.00
2022-11-17T08:59:03.673Z,99739.72
2022-11-17T09:01:33.809Z,99749.56
2022-11-17T09:04:05.311Z,99741.53
2022-11-17T09:06:35.357Z,99748.25
2022-11-17T09:09:05.554Z,99737.97
2022-11-17T09:11:35.642Z,99749.16
2022-11-17T09:14:08.030Z,99747.84
2022-11-17T09:16:38.139Z,99740.53
2022-11-17T09:19:08.177Z,99747.44
2022-11-17T09:21:38.212Z,99752.53
2022-11-17T09:24:09.849Z,99743.16
2022-11-17T09:26:41.068Z,99752.50
2022-11-17T09:29:11.474Z,99752.94
2022-11-17T09:31:41.767Z,99752.44
2022-11-17T09:34:12.049Z,99757.31
2022-11-17T09:36:42.339Z,99752.41
2022-11-17T09:39:12.478Z,99759.66
2022-11-17T09:41:53.275Z,99754.47
2022-11-17T09:45:04.933Z,99740.41
2022-11-17T09:48:33.719Z,99752.84
2022-11-17T09:51:02.794Z,99754.66
2022-11-17T09:53:56.781Z,99745.50
2022-11-17T09:56:27.945Z,99740.31
2022-11-17T09:59:12.108Z,99753.63
2022-11-17T10:01:42.597Z,99741.75
2022-11-17T10:04:17.044Z,99746.81
2022-11-17T10:06:51.274Z,99742.97
2022-11-17T10:09:39.167Z,99731.88
2022-11-17T10:12:24.932Z,99734.13
2022-11-17T10:14:55.847Z,99737.78
2022-11-17T10:17:24.726Z,99731.28
2022-11-17T10:19:53.049Z,99729.84
2022-11-17T10:22:37.262Z,99726.81
2022-11-17T10:25:38.692Z,99724.44
2022-11-17T10:28:29.583Z,99724.34
2022-11-17T10:31:18.811Z,99719.38
2022-11-17T10:33:51.221Z,99712.38
2022-11-17T10:36:30.756Z,99715.84
2022-11-17T10:39:01.554Z,99713.28
2022-11-17T10:41:45.362Z,99700.75
2022-11-17T10:44:12.723Z,99711.97
2022-11-17T10:47:04.806Z,99697.63
2022-11-17T10:49:40.939Z,99686.53
2022-11-17T10:52:19.075Z,99695.28
2022-11-17T10:54:49.946Z,99697.22
2022-11-17T10:57:26.733Z,99694.03
2022-11-17T10:59:57.889Z,99694.84
2022-11-17T11:02:40.653Z,99695.75
2022-11-17T11:05:21.323Z,99692.50
2022-11-17T11:07:51.863Z,99681.25
2022-11-17T11:10:36.114Z,99680.53
2022-11-17T11:13:40.553Z,99671.78
2022-11-17T11:16:12.387Z,99676.41
2022-11-17T11:18:42.462Z,99673.25
2022-11-17T11:21:55.217Z,99669.22
2022-11-17T11:24:51.129Z,99654.47
2022-11-17T11:27:42.194Z,99656.63
2022-11-17T11:30:20.469Z,99646.44
2022-11-17T11:33:35.338Z,99658.56
2022-11-17T11:36:31.745Z,99638.72
2022-11-17T11:39:52.459Z,99642.88
2022-11-17T11:43:00.470Z,99647.44
2022-11-17T11:46:04.112Z,99650.72
2022-11-17T11:48:41.216Z,99641.78
2022-11-17T11:51:36.894Z,99636.38
2022-11-17T11:54:46.303Z,99643.69
2022-11-17T11:57:41.011Z,99627.41
2022-11-17T12:00:19.083Z,99635.44
2022-11-17T12:03:19.003Z,99627.28
2022-11-17T12:06:25.111Z,99643.56
2022-11-17T12:09:30.999Z,99628.41
2022-11-17T12:12:20.876Z,99638.06
2022-11-17T12:15:18.513Z,99638.66
2022-11-17T12:18:12.825Z,99629.72
2022-11-17T12:21:21.685Z,99638.56
2022-11-17T12:24:34.644Z,99643.88
2022-11-17T12:27:33.644Z,99624.84
2022-11-17T12:30:30.667Z,99627.41
2022-11-17T12:33:04.788Z,99645.28
2022-11-17T12:35:39.931Z,99632.00
2022-11-17T12:38:16.493Z,99628.81
2022-11-17T12:40:56.003Z,99625.59
2022-11-17T12:43:28.104Z,99622.41
2022-11-17T12:46:27.051Z,99619.91
2022-11-17T12:49:23.965Z,99620.84
2022-11-17T12:52:16.994Z,99631.88
2022-11-17T12:55:40.146Z,99620.19
2022-11-17T12:58:25.514Z,99627.56
2022-11-17T13:02:00.845Z,99614.59
2022-11-17T13:04:55.298Z,99615.91
2022-11-17T13:07:27.785Z,99622.78
2022-11-17T13:10:00.233Z,99616.72
2022-11-17T13:12:33.852Z,99627.56
2022-11-17T13:15:06.053Z,99607.44
2022-11-17T13:17:44.132Z,99619.25
2022-11-17T13:20:26.999Z,99612.16
2022-11-17T13:23:20.749Z,99618.72
2022-11-17T13:25:50.791Z,99619.31
2022-11-17T13:28:31.749Z,99613.53
2022-11-17T13:31:03.457Z,99608.34
2022-11-17T13:33:39.622Z,99613.78
2022-11-17T13:36:20.541Z,99609.78
2022-11-17T13:38:54.849Z,99602.72
2022-11-17T13:41:29.378Z,99620.19
2022-11-17T13:44:01.454Z,99600.88
2022-11-17T13:46:31.624Z,99602.28
2022-11-17T13:49:01.665Z,99600.09
2022-11-17T13:51:39.328Z,99612.22
2022-11-17T13:54:13.097Z,99602.50
2022-11-17T13:57:25.020Z,99605.16
2022-11-17T13:59:58.664Z,99604.00
2022-11-17T14:02:29.926Z,99612.16
2022-11-17T14:05:15.130Z,99600.97
2022-11-17T14:07:46.970Z,99596.41
2022-11-17T14:10:22.961Z,99592.94
2022-11-17T14:13:22.882Z,99588.19
2022-11-17T14:16:00.686Z,99600.47
2022-11-17T14:18:37.433Z,99593.28
2022-11-17T14:21:17.295Z,99590.34
2022-11-17T14:23:47.344Z,99587.47
2022-11-17T14:26:25.602Z,99594.19
2022-11-17T14:29:01.983Z,99597.84
2022-11-17T14:31:33.322Z,99587.41
2022-11-17T14:34:03.417Z,99600.19
2022-11-17T14:36:35.058Z,99603.94
2022-11-17T14:39:15.981Z,99590.34
2022-11-17T14:41:51.040Z,99599.53
2022-11-17T14:44:21.963Z,99588.63
2022-11-17T14:46:51.996Z,99595.56
2022-11-17T14:49:22.004Z,99598.09
2022-11-17T14:51:53.207Z,99588.84
2022-11-17T14:54:23.325Z,99604.13
2022-11-17T14:56:53.342Z,99594.66
2022-11-17T14:59:23.849Z,99595.97
2022-11-17T15:01:54.106Z,99605.72
2022-11-17T15:07:14.556Z,99597.53
2022-11-17T15:09:44.664Z,99590.50
2022-11-17T15:12:18.371Z,99594.88
2022-11-17T15:14:48.486Z,99594.66
2022-11-17T15:17:19.487Z,99589.72
2022-11-17T15:19:49.638Z,99596.59
2022-11-17T15:22:19.781Z,99602.81
2022-11-17T15:24:49.870Z,99594.56
2022-11-17T15:27:20.008Z,99605.44
2022-11-17T15:29:50.401Z,99597.72
2022-11-17T15:32:20.479Z,99604.13
2022-11-17T15:34:50.507Z,99595.19
2022-11-17T15:37:20.568Z,99590.41
2022-11-17T15:39:50.641Z,99593.34
2022-11-17T15:42:21.012Z,99593.44
2022-11-17T15:44:51.179Z,99588.59
2022-11-17T15:47:21.309Z,99596.00
2022-11-17T15:49:58.535Z,99596.19
2022-11-17T15:52:48.744Z,99588.88
2022-11-17T15:55:15.845Z,99595.16
2022-11-17T15:57:45.866Z,99593.22
2022-11-17T16:00:17.070Z,99595.34
2022-11-17T16:02:47.161Z,99591.88
2022-11-17T16:05:17.290Z,99596.56
2022-11-17T16:07:47.449Z,99593.34
2022-11-17T16:10:17.601Z,99598.13
2022-11-17T16:12:49.615Z,99591.63
2022-11-17T16:15:19.648Z,99586.50
2022-11-17T16:17:49.699Z,99586.16
2022-11-17T16:20:19.941Z,99587.03
2022-11-17T16:22:50.060Z,99588.25
2022-11-17T16:25:20.359Z,99586.41
2022-11-17T16:27:50.424Z,99590.84
2022-11-17T16:30:20.676Z,99588.31
2022-11-17T16:32:50.740Z,99586.72
2022-11-17T16:35:20.811Z,99586.22
2022-11-17T16:37:54.694Z,99584.00
2022-11-17T16:40:24.792Z,99581.94
2022-11-17T16:42:54.880Z,99582.16
2022-11-17T16:45:25.372Z,99577.47
2022-11-17T16:47:55.421Z,99579.19
2022-11-17T16:50:25.535Z,99582.16
2022-11-17T16:52:55.595Z,99582.22
2022-11-17T16:55:25.638Z,99581.31
2022-11-17T16:57:55.697Z,99585.59
2022-11-17T17:00:25.766Z,99581.44
2022-11-17T17:02:57.270Z,99581.59
2022-11-17T17:05:30.888Z,99586.09
2022-11-17T17:08:00.953Z,99579.72
2022-11-17T17:10:32.776Z,99584.00
2022-11-17T17:13:02.355Z,99588.53
2022-11-17T17:15:30.994Z,99591.78
2022-11-17T17:17:59.391Z,99586.78
2022-11-17T17:20:27.750Z,99586.28
2022-11-17T17:23:01.723Z,99584.28
2022-11-17T17:25:33.064Z,99580.22
2022-11-17T17:28:03.544Z,99581.72
2022-11-17T17:30:33.548Z,99584.16
2022-11-17T17:33:03.605Z,99577.03
2022-11-17T17:35:36.135Z,99582.78
2022-11-17T17:38:06.220Z,99580.06
2022-11-17T17:40:38.153Z,99585.31
2022-11-17T17:43:08.179Z,99599.34
2022-11-17T17:45:40.399Z,99596.44
2022-11-17T17:48:10.501Z,99594.88
2022-11-17T17:50:43.174Z,99595.97
2022-11-17T17:53:11.983Z,99597.47
2022-11-17T17:55:42.795Z,99594.25
2022-11-17T17:58:12.724Z,99601.09
2022-11-17T18:00:42.920Z,99602.75
2022-11-17T18:03:12.659Z,99595.94
2022-11-17T18:05:42.600Z,99594.38
2022-11-17T18:08:13.142Z,99608.66
2022-11-17T18:10:42.762Z,99593.25
2022-11-17T18:13:12.531Z,99595.34
2022-11-17T18:15:42.474Z,99607.44
2022-11-17T18:18:12.633Z,99599.50
2022-11-17T18:20:40.961Z,99599.72
2022-11-17T18:23:09.355Z,99592.81
2022-11-17T18:25:37.786Z,99600.00
2022-11-17T18:28:06.182Z,99597.28
2022-11-17T18:30:34.642Z,99596.63
2022-11-17T18:33:03.362Z,99596.53
2022-11-17T18:35:31.499Z,99607.19
2022-11-17T18:38:01.601Z,99597.44
2022-11-17T18:40:31.568Z,99604.22
2022-11-17T18:43:02.346Z,99599.50
2022-11-17T18:45:38.381Z,99607.44
2022-11-17T18:48:06.387Z,99607.72
2022-11-17T18:50:47.574Z,99603.88
2022-11-17T18:53:24.809Z,99613.50
2022-11-17T18:56:08.111Z,99604.09
2022-11-17T18:58:41.013Z,99605.28
2022-11-17T19:01:25.103Z,99615.00
2022-11-17T19:03:58.590Z,99602.03
2022-11-17T19:06:28.026Z,99609.44
2022-11-17T19:09:00.895Z,99613.00
2022-11-17T19:11:34.640Z,99608.84
2022-11-17T19:14:05.532Z,99612.78
2022-11-17T19:16:44.358Z,99610.47
2022-11-17T19:19:15.189Z,99608.13
2022-11-17T19:21:45.844Z,99605.91
2022-11-17T19:24:15.834Z,99607.50
2022-11-17T19:26:47.474Z,99609.22
2022-11-17T19:29:17.677Z,99610.25
2022-11-17T19:31:47.976Z,99611.16
2022-11-17T19:34:17.533Z,99615.94
2022-11-17T19:36:47.776Z,99614.53
2022-11-17T19:39:17.745Z,99611.56
2022-11-17T19:41:47.790Z,99605.91
2022-11-17T19:44:17.637Z,99608.41
2022-11-17T19:46:47.699Z,99613.28
2022-11-17T19:49:17.832Z,99617.88
2022-11-17T19:51:47.846Z,99617.22
2022-11-17T19:54:17.732Z,99609.31
2022-11-17T19:56:47.603Z,99626.47
2022-11-17T19:59:18.641Z,99614.25
2022-11-17T20:01:47.591Z,99624.41
2022-11-17T20:04:17.928Z,99630.06
2022-11-17T20:06:51.050Z,99617.50
2022-11-17T20:09:21.318Z,99622.59
2022-11-17T20:11:51.351Z,99618.94
2022-11-17T20:14:21.916Z,99630.72
2022-11-17T20:16:51.355Z,99631.03
2022-11-17T20:19:21.144Z,99632.22
2022-11-17T20:21:48.375Z,99629.19
2022-11-17T20:24:16.740Z,99634.66
2022-11-17T20:26:47.349Z,99626.78
2022-11-17T20:29:16.869Z,99632.06
2022-11-17T20:31:44.982Z,99626.94
2022-11-17T20:34:13.457Z,99635.00
2022-11-17T20:36:41.744Z,99640.03
2022-11-17T20:39:10.258Z,99635.75
2022-11-17T20:41:38.803Z,99631.66
2022-11-17T20:44:23.963Z,99629.19
2022-11-17T20:46:55.767Z,99631.91
2022-11-17T20:49:25.695Z,99635.31
2022-11-17T20:51:55.708Z,99637.38
2022-11-17T20:54:48.405Z,99634.97
2022-11-17T20:57:18.862Z,99629.69
2022-11-17T20:59:48.559Z,99636.19
2022-11-17T21:02:18.597Z,99632.59
2022-11-17T21:04:48.475Z,99639.28
2022-11-17T21:07:18.426Z,99642.47
2022-11-17T21:09:48.517Z,99642.31
2022-11-17T21:12:18.778Z,99644.34
2022-11-17T21:14:48.991Z,99649.31
2022-11-17T21:17:36.864Z,99648.19
2022-11-17T21:20:07.322Z,99646.91
2022-11-17T21:22:39.747Z,99650.22
2022-11-17T21:25:10.045Z,99653.66
2022-11-17T21:27:40.069Z,99658.16
2022-11-17T21:30:13.526Z,99652.38
2022-11-17T21:32:44.014Z,99658.84
2022-11-17T21:35:14.330Z,99664.66
2022-11-17T21:37:44.366Z,99655.88
2022-11-17T21:40:14.557Z,99655.63
2022-11-17T21:42:45.289Z,99659.81
2022-11-17T21:45:17.214Z,99651.63
2022-11-17T21:47:47.419Z,99658.50
2022-11-17T21:50:20.061Z,99657.91
2022-11-17T21:52:50.149Z,99674.38
2022-11-17T21:55:20.424Z,99668.94
2022-11-17T21:57:51.631Z,99667.78
2022-11-17T22:00:21.880Z,99669.00
2022-11-17T22:02:51.937Z,99672.16
2022-11-17T22:05:23.316Z,99663.66
2022-11-17T22:07:53.602Z,99670.41
2022-11-17T22:10:24.831Z,99671.56
2022-11-17T22:12:54.884Z,99674.84
2022-11-17T22:15:27.091Z,99674.38
2022-11-17T22:17:57.120Z,99676.41
2022-11-17T22:20:28.739Z,99675.06
2022-11-17T22:22:58.598Z,99666.19
2022-11-17T22:28:17.017Z,99673.59
2022-11-17T22:30:47.094Z,99682.69
2022-11-17T22:33:17.933Z,99679.09
2022-11-17T22:35:48.825Z,99679.00
2022-11-17T22:38:19.057Z,99677.38
2022-11-17T22:40:49.108Z,99677.50
2022-11-17T22:43:19.172Z,99679.00
2022-11-17T22:45:49.283Z,99680.81
2022-11-17T22:48:19.414Z,99689.81
2022-11-17T22:50:49.641Z,99704.56
2022-11-17T22:53:19.755Z,99694.50
2022-11-17T22:55:49.820Z,99695.03
2022-11-17T22:58:20.716Z,99687.03
2022-11-17T23:00:53.064Z,99687.63
2022-11-17T23:03:23.612Z,99689.81
2022-11-17T23:05:53.739Z,99678.34
2022-11-17T23:08:23.790Z,99692.06
2022-11-17T23:11:35.037Z,99691.59
2022-11-17T23:13:54.239Z,99694.31
2022-11-17T23:16:25.033Z,99688.03
2022-11-17T23:18:57.226Z,99692.47
2022-11-17T23:21:26.530Z,99685.84
2022-11-17T23:23:55.111Z,99677.47
2022-11-17T23:26:23.731Z,99687.06
2022-11-17T23:28:51.805Z,99688.03
2022-11-17T23:31:20.498Z,99694.66
2022-11-17T23:33:49.094Z,99696.28
2022-11-17T23:36:22.020Z,99701.53
2022-11-17T23:38:56.382Z,99700.56
2022-11-17T23:41:26.543Z,99706.47
2022-11-17T23:43:56.630Z,99716.47
2022-11-17T23:46:27.415Z,99727.19
2022-11-17T23:48:57.474Z,99726.38
2022-11-17T23:51:29.955Z,99727.28
2022-11-17T23:54:03.019Z,99731.19
2022-11-17T23:56:35.025Z,99732.31
2022-11-17T23:59:07.062Z,99724.63
